sensor_id;sensor_type;location;lat;lon;timestamp;P1;durP1;ratioP1;P2;durP2;ratioP2
6007;SDS011;3032;49.484;11.112;2022-12-20T00:02:18;32.90;;;17.50;;
6007;SDS011;3032;49.484;11.112;2022-12-20T00:04:44;36.00;;;18.90;;
6007;SDS011;3032;49.484;11.112;2022-12-20T00:07:10;32.10;;;18.50;;
6007;SDS011;3032;49.484;11.112;2022-12-20T00:09:35;33.90;;;18.57;;
6007;SDS011;3032;49.484;11.112;2022-12-20T00:12:01;31.33;;;18.48;;
6007;SDS011;3032;49.484;11.112;2022-12-20T00:14:27;35.10;;;20.33;;
6007;SDS011;3032;49.484;11.112;2022-12-20T00:16:52;34.07;;;19.53;;
6007;SDS011;3032;49.484;11.112;2022-12-20T00:19:18;31.20;;;17.67;;
6007;SDS011;3032;49.484;11.112;2022-12-20T00:21:43;33.73;;;19.27;;
6007;SDS011;3032;49.484;11.112;2022-12-20T00:24:09;35.43;;;20.20;;
6007;SDS011;3032;49.484;11.112;2022-12-20T00:26:35;31.23;;;17.73;;
6007;SDS011;3032;49.484;11.112;2022-12-20T00:29:01;32.92;;;18.42;;
6007;SDS011;3032;49.484;11.112;2022-12-20T00:31:29;32.15;;;19.17;;
6007;SDS011;3032;49.484;11.112;2022-12-20T00:33:55;33.08;;;19.10;;
6007;SDS011;3032;49.484;11.112;2022-12-20T00:36:22;33.75;;;18.42;;
6007;SDS011;3032;49.484;11.112;2022-12-20T00:38:50;36.90;;;20.05;;
6007;SDS011;3032;49.484;11.112;2022-12-20T00:41:18;36.50;;;18.90;;
6007;SDS011;3032;49.484;11.112;2022-12-20T00:43:46;35.15;;;19.77;;
6007;SDS011;3032;49.484;11.112;2022-12-20T00:46:12;30.95;;;17.80;;
6007;SDS011;3032;49.484;11.112;2022-12-20T00:48:39;32.03;;;18.65;;
6007;SDS011;3032;49.484;11.112;2022-12-20T00:51:17;31.63;;;18.73;;
6007;SDS011;3032;49.484;11.112;2022-12-20T00:53:44;31.15;;;18.58;;
6007;SDS011;3032;49.484;11.112;2022-12-20T00:56:10;29.90;;;17.08;;
6007;SDS011;3032;49.484;11.112;2022-12-20T00:58:37;31.65;;;17.92;;
6007;SDS011;3032;49.484;11.112;2022-12-20T01:01:05;38.75;;;20.20;;
6007;SDS011;3032;49.484;11.112;2022-12-20T01:03:38;34.88;;;21.08;;
6007;SDS011;3032;49.484;11.112;2022-12-20T01:06:04;35.23;;;19.93;;
6007;SDS011;3032;49.484;11.112;2022-12-20T01:08:30;32.58;;;17.85;;
6007;SDS011;3032;49.484;11.112;2022-12-20T01:11:00;30.75;;;19.88;;
6007;SDS011;3032;49.484;11.112;2022-12-20T01:13:27;33.63;;;19.70;;
6007;SDS011;3032;49.484;11.112;2022-12-20T01:15:53;30.88;;;18.15;;
6007;SDS011;3032;49.484;11.112;2022-12-20T01:18:19;34.40;;;19.63;;
6007;SDS011;3032;49.484;11.112;2022-12-20T01:20:45;31.40;;;19.10;;
6007;SDS011;3032;49.484;11.112;2022-12-20T01:23:10;33.27;;;19.43;;
6007;SDS011;3032;49.484;11.112;2022-12-20T01:25:36;30.40;;;18.13;;
6007;SDS011;3032;49.484;11.112;2022-12-20T01:28:01;32.70;;;18.80;;
6007;SDS011;3032;49.484;11.112;2022-12-20T01:30:27;31.97;;;19.40;;
6007;SDS011;3032;49.484;11.112;2022-12-20T01:32:52;30.33;;;16.87;;
6007;SDS011;3032;49.484;11.112;2022-12-20T01:35:18;32.60;;;19.50;;
6007;SDS011;3032;49.484;11.112;2022-12-20T01:37:44;31.77;;;19.37;;
6007;SDS011;3032;49.484;11.112;2022-12-20T01:40:09;32.53;;;19.43;;
6007;SDS011;3032;49.484;11.112;2022-12-20T01:42:35;30.47;;;17.80;;
6007;SDS011;3032;49.484;11.112;2022-12-20T01:45:01;32.85;;;19.40;;
6007;SDS011;3032;49.484;11.112;2022-12-20T01:47:32;36.22;;;18.30;;
6007;SDS011;3032;49.484;11.112;2022-12-20T01:49:58;30.52;;;18.80;;
6007;SDS011;3032;49.484;11.112;2022-12-20T01:52:32;33.85;;;20.25;;
6007;SDS011;3032;49.484;11.112;2022-12-20T01:55:15;32.55;;;19.70;;
6007;SDS011;3032;49.484;11.112;2022-12-20T01:57:47;29.75;;;17.85;;
6007;SDS011;3032;49.484;11.112;2022-12-20T02:00:17;29.95;;;19.13;;
6007;SDS011;3032;49.484;11.112;2022-12-20T02:02:44;35.20;;;21.00;;
6007;SDS011;3032;49.484;11.112;2022-12-20T02:05:11;34.88;;;19.95;;
6007;SDS011;3032;49.484;11.112;2022-12-20T02:07:38;33.72;;;20.55;;
6007;SDS011;3032;49.484;11.112;2022-12-20T02:10:06;35.80;;;20.80;;
6007;SDS011;3032;49.484;11.112;2022-12-20T02:12:37;31.20;;;19.70;;
6007;SDS011;3032;49.484;11.112;2022-12-20T02:23:59;36.33;;;20.33;;
6007;SDS011;3032;49.484;11.112;2022-12-20T02:29:36;38.35;;;21.00;;
6007;SDS011;3032;49.484;11.112;2022-12-20T02:32:23;36.25;;;19.45;;
6007;SDS011;3032;49.484;11.112;2022-12-20T02:34:55;31.02;;;18.23;;
6007;SDS011;3032;49.484;11.112;2022-12-20T02:37:20;35.77;;;20.37;;
6007;SDS011;3032;49.484;11.112;2022-12-20T02:39:46;30.40;;;16.10;;
6007;SDS011;3032;49.484;11.112;2022-12-20T02:42:13;36.10;;;19.92;;
6007;SDS011;3032;49.484;11.112;2022-12-20T02:44:42;34.80;;;19.70;;
6007;SDS011;3032;49.484;11.112;2022-12-20T02:47:39;31.15;;;17.85;;
6007;SDS011;3032;49.484;11.112;2022-12-20T02:50:35;33.42;;;19.52;;
6007;SDS011;3032;49.484;11.112;2022-12-20T02:53:06;31.10;;;19.73;;
6007;SDS011;3032;49.484;11.112;2022-12-20T02:55:37;32.78;;;19.45;;
6007;SDS011;3032;49.484;11.112;2022-12-20T02:58:28;34.05;;;20.02;;
6007;SDS011;3032;49.484;11.112;2022-12-20T03:01:00;32.08;;;18.15;;
6007;SDS011;3032;49.484;11.112;2022-12-20T03:03:31;29.88;;;16.92;;
6007;SDS011;3032;49.484;11.112;2022-12-20T03:05:58;29.55;;;17.45;;
6007;SDS011;3032;49.484;11.112;2022-12-20T03:08:24;32.83;;;18.40;;
6007;SDS011;3032;49.484;11.112;2022-12-20T03:10:50;33.23;;;19.77;;
6007;SDS011;3032;49.484;11.112;2022-12-20T03:13:17;33.60;;;18.90;;
6007;SDS011;3032;49.484;11.112;2022-12-20T03:15:52;35.50;;;20.97;;
6007;SDS011;3032;49.484;11.112;2022-12-20T03:18:17;30.52;;;17.38;;
6007;SDS011;3032;49.484;11.112;2022-12-20T03:20:43;34.53;;;19.87;;
6007;SDS011;3032;49.484;11.112;2022-12-20T03:23:09;33.03;;;19.03;;
6007;SDS011;3032;49.484;11.112;2022-12-20T03:25:34;31.33;;;18.80;;
6007;SDS011;3032;49.484;11.112;2022-12-20T03:28:00;33.30;;;19.23;;
6007;SDS011;3032;49.484;11.112;2022-12-20T03:30:26;35.10;;;20.20;;
6007;SDS011;3032;49.484;11.112;2022-12-20T03:32:51;35.87;;;20.07;;
6007;SDS011;3032;49.484;11.112;2022-12-20T03:35:17;34.20;;;20.60;;
6007;SDS011;3032;49.484;11.112;2022-12-20T03:37:42;34.80;;;19.40;;
6007;SDS011;3032;49.484;11.112;2022-12-20T03:40:08;32.07;;;20.27;;
6007;SDS011;3032;49.484;11.112;2022-12-20T03:42:35;32.10;;;19.65;;
6007;SDS011;3032;49.484;11.112;2022-12-20T03:45:00;32.87;;;20.00;;
6007;SDS011;3032;49.484;11.112;2022-12-20T03:47:26;33.83;;;19.70;;
6007;SDS011;3032;49.484;11.112;2022-12-20T03:49:52;38.90;;;21.70;;
6007;SDS011;3032;49.484;11.112;2022-12-20T03:52:17;35.60;;;21.40;;
6007;SDS011;3032;49.484;11.112;2022-12-20T03:54:43;33.40;;;20.10;;
6007;SDS011;3032;49.484;11.112;2022-12-20T03:57:08;32.17;;;19.37;;
6007;SDS011;3032;49.484;11.112;2022-12-20T03:59:34;33.00;;;19.30;;
6007;SDS011;3032;49.484;11.112;2022-12-20T04:02:00;34.03;;;20.17;;
6007;SDS011;3032;49.484;11.112;2022-12-20T04:04:26;36.45;;;21.67;;
6007;SDS011;3032;49.484;11.112;2022-12-20T04:06:51;33.13;;;20.57;;
6007;SDS011;3032;49.484;11.112;2022-12-20T04:09:17;35.70;;;21.33;;
6007;SDS011;3032;49.484;11.112;2022-12-20T04:11:43;37.90;;;22.03;;
6007;SDS011;3032;49.484;11.112;2022-12-20T04:14:08;33.90;;;18.50;;
6007;SDS011;3032;49.484;11.112;2022-12-20T04:16:34;36.83;;;19.23;;
6007;SDS011;3032;49.484;11.112;2022-12-20T04:19:00;35.00;;;20.33;;
6007;SDS011;3032;49.484;11.112;2022-12-20T04:21:29;32.47;;;19.63;;
6007;SDS011;3032;49.484;11.112;2022-12-20T04:23:58;34.17;;;19.90;;
6007;SDS011;3032;49.484;11.112;2022-12-20T04:26:24;29.35;;;18.13;;
6007;SDS011;3032;49.484;11.112;2022-12-20T04:28:50;34.30;;;19.75;;
6007;SDS011;3032;49.484;11.112;2022-12-20T04:31:16;36.23;;;20.00;;
6007;SDS011;3032;49.484;11.112;2022-12-20T04:33:42;32.13;;;18.80;;
6007;SDS011;3032;49.484;11.112;2022-12-20T04:36:07;35.87;;;19.40;;
6007;SDS011;3032;49.484;11.112;2022-12-20T04:38:33;33.07;;;18.67;;
6007;SDS011;3032;49.484;11.112;2022-12-20T04:40:59;30.42;;;18.38;;
6007;SDS011;3032;49.484;11.112;2022-12-20T04:43:25;35.93;;;20.53;;
6007;SDS011;3032;49.484;11.112;2022-12-20T04:45:51;33.10;;;19.57;;
6007;SDS011;3032;49.484;11.112;2022-12-20T04:48:20;29.75;;;19.40;;
6007;SDS011;3032;49.484;11.112;2022-12-20T04:50:48;31.80;;;19.23;;
6007;SDS011;3032;49.484;11.112;2022-12-20T04:53:15;32.67;;;19.60;;
6007;SDS011;3032;49.484;11.112;2022-12-20T04:55:59;34.22;;;19.55;;
6007;SDS011;3032;49.484;11.112;2022-12-20T04:58:24;33.93;;;20.97;;
6007;SDS011;3032;49.484;11.112;2022-12-20T05:00:50;27.20;;;14.90;;
6007;SDS011;3032;49.484;11.112;2022-12-20T05:03:16;34.57;;;20.47;;
6007;SDS011;3032;49.484;11.112;2022-12-20T05:05:43;33.13;;;19.55;;
6007;SDS011;3032;49.484;11.112;2022-12-20T05:08:08;30.53;;;18.23;;
6007;SDS011;3032;49.484;11.112;2022-12-20T05:10:35;35.05;;;20.65;;
6007;SDS011;3032;49.484;11.112;2022-12-20T05:13:00;33.37;;;19.50;;
6007;SDS011;3032;49.484;11.112;2022-12-20T05:15:26;30.80;;;19.27;;
6007;SDS011;3032;49.484;11.112;2022-12-20T05:17:52;32.80;;;18.33;;
6007;SDS011;3032;49.484;11.112;2022-12-20T05:20:23;32.45;;;19.27;;
6007;SDS011;3032;49.484;11.112;2022-12-20T05:22:49;33.25;;;20.20;;
6007;SDS011;3032;49.484;11.112;2022-12-20T05:25:34;31.58;;;18.50;;
6007;SDS011;3032;49.484;11.112;2022-12-20T05:28:18;33.13;;;20.05;;
6007;SDS011;3032;49.484;11.112;2022-12-20T05:30:44;32.20;;;18.00;;
6007;SDS011;3032;49.484;11.112;2022-12-20T05:33:09;32.17;;;18.67;;
6007;SDS011;3032;49.484;11.112;2022-12-20T05:35:35;30.90;;;17.67;;
6007;SDS011;3032;49.484;11.112;2022-12-20T05:38:01;29.07;;;18.43;;
6007;SDS011;3032;49.484;11.112;2022-12-20T05:40:27;30.45;;;18.88;;
6007;SDS011;3032;49.484;11.112;2022-12-20T05:42:53;33.27;;;20.17;;
6007;SDS011;3032;49.484;11.112;2022-12-20T05:45:19;30.10;;;17.40;;
6007;SDS011;3032;49.484;11.112;2022-12-20T05:47:44;31.80;;;19.60;;
6007;SDS011;3032;49.484;11.112;2022-12-20T05:50:10;35.50;;;19.57;;
6007;SDS011;3032;49.484;11.112;2022-12-20T05:52:36;30.43;;;18.43;;
6007;SDS011;3032;49.484;11.112;2022-12-20T05:55:01;26.97;;;17.40;;
6007;SDS011;3032;49.484;11.112;2022-12-20T05:57:27;29.40;;;18.20;;
6007;SDS011;3032;49.484;11.112;2022-12-20T05:59:52;30.63;;;19.07;;
6007;SDS011;3032;49.484;11.112;2022-12-20T06:02:18;30.80;;;18.50;;
6007;SDS011;3032;49.484;11.112;2022-12-20T06:04:44;31.10;;;19.13;;
6007;SDS011;3032;49.484;11.112;2022-12-20T06:07:09;35.20;;;20.13;;
6007;SDS011;3032;49.484;11.112;2022-12-20T06:09:35;30.70;;;19.63;;
6007;SDS011;3032;49.484;11.112;2022-12-20T06:12:01;29.57;;;19.90;;
6007;SDS011;3032;49.484;11.112;2022-12-20T06:14:26;30.17;;;18.40;;
6007;SDS011;3032;49.484;11.112;2022-12-20T06:16:52;32.13;;;19.63;;
6007;SDS011;3032;49.484;11.112;2022-12-20T06:19:17;33.40;;;19.10;;
6007;SDS011;3032;49.484;11.112;2022-12-20T06:21:43;37.13;;;20.30;;
6007;SDS011;3032;49.484;11.112;2022-12-20T06:24:09;33.47;;;19.07;;
6007;SDS011;3032;49.484;11.112;2022-12-20T06:26:34;32.97;;;18.80;;
6007;SDS011;3032;49.484;11.112;2022-12-20T06:29:03;30.87;;;18.80;;
6007;SDS011;3032;49.484;11.112;2022-12-20T06:31:31;31.80;;;19.30;;
6007;SDS011;3032;49.484;11.112;2022-12-20T06:33:57;33.78;;;20.52;;
6007;SDS011;3032;49.484;11.112;2022-12-20T06:36:23;33.23;;;19.37;;
6007;SDS011;3032;49.484;11.112;2022-12-20T06:38:48;33.07;;;19.20;;
6007;SDS011;3032;49.484;11.112;2022-12-20T06:41:14;32.07;;;18.73;;
6007;SDS011;3032;49.484;11.112;2022-12-20T06:43:40;35.10;;;20.50;;
6007;SDS011;3032;49.484;11.112;2022-12-20T06:46:05;34.10;;;19.97;;
6007;SDS011;3032;49.484;11.112;2022-12-20T06:48:31;31.53;;;19.57;;
6007;SDS011;3032;49.484;11.112;2022-12-20T06:50:56;28.40;;;18.50;;
6007;SDS011;3032;49.484;11.112;2022-12-20T06:53:22;32.28;;;20.17;;
6007;SDS011;3032;49.484;11.112;2022-12-20T06:55:49;39.70;;;20.97;;
6007;SDS011;3032;49.484;11.112;2022-12-20T06:58:18;32.20;;;19.77;;
6007;SDS011;3032;49.484;11.112;2022-12-20T07:00:44;31.65;;;20.33;;
6007;SDS011;3032;49.484;11.112;2022-12-20T07:03:10;33.63;;;19.77;;
6007;SDS011;3032;49.484;11.112;2022-12-20T07:05:36;30.90;;;18.73;;
6007;SDS011;3032;49.484;11.112;2022-12-20T07:08:01;36.80;;;19.80;;
6007;SDS011;3032;49.484;11.112;2022-12-20T07:10:28;33.88;;;19.38;;
6007;SDS011;3032;49.484;11.112;2022-12-20T07:13:01;36.50;;;20.13;;
6007;SDS011;3032;49.484;11.112;2022-12-20T07:15:27;32.93;;;20.37;;
6007;SDS011;3032;49.484;11.112;2022-12-20T07:17:52;30.93;;;18.37;;
6007;SDS011;3032;49.484;11.112;2022-12-20T07:20:18;35.43;;;18.73;;
6007;SDS011;3032;49.484;11.112;2022-12-20T07:22:46;28.97;;;18.60;;
6007;SDS011;3032;49.484;11.112;2022-12-20T07:25:12;30.00;;;19.30;;
6007;SDS011;3032;49.484;11.112;2022-12-20T07:27:37;30.50;;;18.77;;
6007;SDS011;3032;49.484;11.112;2022-12-20T07:30:03;31.17;;;17.63;;
6007;SDS011;3032;49.484;11.112;2022-12-20T07:32:29;29.35;;;18.60;;
6007;SDS011;3032;49.484;11.112;2022-12-20T07:34:55;32.87;;;19.07;;
6007;SDS011;3032;49.484;11.112;2022-12-20T07:37:20;32.47;;;18.17;;
6007;SDS011;3032;49.484;11.112;2022-12-20T07:39:46;34.37;;;19.70;;
6007;SDS011;3032;49.484;11.112;2022-12-20T07:42:11;34.60;;;19.47;;
6007;SDS011;3032;49.484;11.112;2022-12-20T07:44:37;30.10;;;19.77;;
6007;SDS011;3032;49.484;11.112;2022-12-20T07:47:02;30.93;;;17.73;;
6007;SDS011;3032;49.484;11.112;2022-12-20T07:49:28;27.20;;;17.47;;
6007;SDS011;3032;49.484;11.112;2022-12-20T07:51:54;29.73;;;17.27;;
6007;SDS011;3032;49.484;11.112;2022-12-20T07:54:26;26.35;;;17.17;;
6007;SDS011;3032;49.484;11.112;2022-12-20T07:56:59;29.70;;;17.73;;
6007;SDS011;3032;49.484;11.112;2022-12-20T07:59:34;29.50;;;17.42;;
6007;SDS011;3032;49.484;11.112;2022-12-20T08:02:03;28.48;;;16.70;;
6007;SDS011;3032;49.484;11.112;2022-12-20T08:04:30;26.80;;;17.63;;
6007;SDS011;3032;49.484;11.112;2022-12-20T08:06:58;32.83;;;18.75;;
6007;SDS011;3032;49.484;11.112;2022-12-20T08:09:25;30.60;;;18.50;;
6007;SDS011;3032;49.484;11.112;2022-12-20T08:11:55;29.73;;;17.45;;
6007;SDS011;3032;49.484;11.112;2022-12-20T08:14:22;29.80;;;17.30;;
6007;SDS011;3032;49.484;11.112;2022-12-20T08:16:48;26.17;;;16.53;;
6007;SDS011;3032;49.484;11.112;2022-12-20T08:19:13;28.23;;;17.60;;
6007;SDS011;3032;49.484;11.112;2022-12-20T08:21:39;32.87;;;18.10;;
6007;SDS011;3032;49.484;11.112;2022-12-20T08:24:05;27.27;;;17.93;;
6007;SDS011;3032;49.484;11.112;2022-12-20T08:26:30;27.57;;;18.40;;
6007;SDS011;3032;49.484;11.112;2022-12-20T08:29:00;26.30;;;17.10;;
6007;SDS011;3032;49.484;11.112;2022-12-20T08:31:26;26.73;;;15.60;;
6007;SDS011;3032;49.484;11.112;2022-12-20T08:33:52;27.30;;;17.97;;
6007;SDS011;3032;49.484;11.112;2022-12-20T08:36:18;27.77;;;16.70;;
6007;SDS011;3032;49.484;11.112;2022-12-20T08:38:44;26.80;;;16.97;;
6007;SDS011;3032;49.484;11.112;2022-12-20T08:41:10;25.37;;;15.77;;
6007;SDS011;3032;49.484;11.112;2022-12-20T08:43:40;26.52;;;15.95;;
6007;SDS011;3032;49.484;11.112;2022-12-20T08:46:07;25.15;;;16.35;;
6007;SDS011;3032;49.484;11.112;2022-12-20T08:48:33;27.00;;;17.13;;
6007;SDS011;3032;49.484;11.112;2022-12-20T08:51:00;27.77;;;18.25;;
6007;SDS011;3032;49.484;11.112;2022-12-20T08:53:28;26.40;;;16.63;;
6007;SDS011;3032;49.484;11.112;2022-12-20T08:56:08;28.13;;;17.38;;
6007;SDS011;3032;49.484;11.112;2022-12-20T08:58:36;27.58;;;17.05;;
6007;SDS011;3032;49.484;11.112;2022-12-20T09:01:03;30.30;;;17.00;;
6007;SDS011;3032;49.484;11.112;2022-12-20T09:03:30;23.25;;;15.70;;
6007;SDS011;3032;49.484;11.112;2022-12-20T09:05:56;25.58;;;15.60;;
6007;SDS011;3032;49.484;11.112;2022-12-20T09:08:23;24.88;;;15.95;;
6007;SDS011;3032;49.484;11.112;2022-12-20T09:10:48;27.43;;;16.73;;
6007;SDS011;3032;49.484;11.112;2022-12-20T09:13:14;28.70;;;17.23;;
6007;SDS011;3032;49.484;11.112;2022-12-20T09:15:40;28.90;;;16.60;;
6007;SDS011;3032;49.484;11.112;2022-12-20T09:18:06;26.92;;;16.17;;
6007;SDS011;3032;49.484;11.112;2022-12-20T09:20:32;24.67;;;15.70;;
6007;SDS011;3032;49.484;11.112;2022-12-20T09:22:58;26.60;;;15.93;;
6007;SDS011;3032;49.484;11.112;2022-12-20T09:25:24;24.63;;;15.40;;
6007;SDS011;3032;49.484;11.112;2022-12-20T09:27:51;22.95;;;15.43;;
6007;SDS011;3032;49.484;11.112;2022-12-20T09:30:19;23.15;;;15.18;;
6007;SDS011;3032;49.484;11.112;2022-12-20T09:32:44;25.33;;;15.90;;
6007;SDS011;3032;49.484;11.112;2022-12-20T09:35:10;22.33;;;14.90;;
6007;SDS011;3032;49.484;11.112;2022-12-20T09:37:35;24.27;;;14.73;;
6007;SDS011;3032;49.484;11.112;2022-12-20T09:40:01;23.47;;;15.57;;
6007;SDS011;3032;49.484;11.112;2022-12-20T09:42:28;20.38;;;14.40;;
6007;SDS011;3032;49.484;11.112;2022-12-20T09:44:56;25.88;;;15.40;;
6007;SDS011;3032;49.484;11.112;2022-12-20T09:47:29;22.20;;;15.13;;
6007;SDS011;3032;49.484;11.112;2022-12-20T09:49:58;22.42;;;14.48;;
6007;SDS011;3032;49.484;11.112;2022-12-20T09:55:17;21.40;;;15.35;;
6007;SDS011;3032;49.484;11.112;2022-12-20T10:00:52;25.15;;;15.63;;
6007;SDS011;3032;49.484;11.112;2022-12-20T10:03:19;22.60;;;15.40;;
6007;SDS011;3032;49.484;11.112;2022-12-20T10:05:53;22.13;;;14.75;;
6007;SDS011;3032;49.484;11.112;2022-12-20T10:08:36;22.38;;;14.00;;
6007;SDS011;3032;49.484;11.112;2022-12-20T10:14:01;23.75;;;14.90;;
6007;SDS011;3032;49.484;11.112;2022-12-20T10:16:40;25.50;;;16.05;;
6007;SDS011;3032;49.484;11.112;2022-12-20T10:22:19;18.55;;;12.98;;
6007;SDS011;3032;49.484;11.112;2022-12-20T10:25:06;23.20;;;14.93;;
6007;SDS011;3032;49.484;11.112;2022-12-20T10:27:54;20.98;;;13.85;;
6007;SDS011;3032;49.484;11.112;2022-12-20T10:30:21;20.75;;;13.85;;
6007;SDS011;3032;49.484;11.112;2022-12-20T10:32:50;23.50;;;13.73;;
6007;SDS011;3032;49.484;11.112;2022-12-20T10:38:02;22.70;;;13.70;;
6007;SDS011;3032;49.484;11.112;2022-12-20T10:42:58;20.23;;;13.88;;
6007;SDS011;3032;49.484;11.112;2022-12-20T10:46:11;20.77;;;13.93;;
6007;SDS011;3032;49.484;11.112;2022-12-20T10:48:30;21.40;;;12.40;;
6007;SDS011;3032;49.484;11.112;2022-12-20T10:51:12;17.27;;;12.68;;
6007;SDS011;3032;49.484;11.112;2022-12-20T10:53:50;20.65;;;13.65;;
6007;SDS011;3032;49.484;11.112;2022-12-20T10:56:20;19.73;;;12.50;;
6007;SDS011;3032;49.484;11.112;2022-12-20T11:01:27;17.27;;;11.65;;
6007;SDS011;3032;49.484;11.112;2022-12-20T11:06:50;17.73;;;11.80;;
6007;SDS011;3032;49.484;11.112;2022-12-20T11:11:57;21.63;;;12.52;;
6007;SDS011;3032;49.484;11.112;2022-12-20T11:14:30;17.40;;;12.30;;
6007;SDS011;3032;49.484;11.112;2022-12-20T11:16:57;18.42;;;12.68;;
6007;SDS011;3032;49.484;11.112;2022-12-20T11:19:36;22.10;;;13.23;;
6007;SDS011;3032;49.484;11.112;2022-12-20T11:30:49;20.27;;;13.25;;
6007;SDS011;3032;49.484;11.112;2022-12-20T11:38:45;18.17;;;12.20;;
6007;SDS011;3032;49.484;11.112;2022-12-20T11:49:23;18.75;;;11.95;;
6007;SDS011;3032;49.484;11.112;2022-12-20T11:52:17;18.98;;;12.05;;
6007;SDS011;3032;49.484;11.112;2022-12-20T11:54:57;16.63;;;11.80;;
6007;SDS011;3032;49.484;11.112;2022-12-20T11:58:03;19.25;;;12.48;;
6007;SDS011;3032;49.484;11.112;2022-12-20T12:00:37;18.88;;;12.50;;
6007;SDS011;3032;49.484;11.112;2022-12-20T12:03:08;17.42;;;11.18;;
6007;SDS011;3032;49.484;11.112;2022-12-20T12:05:43;17.05;;;12.27;;
6007;SDS011;3032;49.484;11.112;2022-12-20T12:08:18;16.95;;;11.85;;
6007;SDS011;3032;49.484;11.112;2022-12-20T12:10:57;18.23;;;12.35;;
6007;SDS011;3032;49.484;11.112;2022-12-20T12:13:43;18.90;;;11.82;;
6007;SDS011;3032;49.484;11.112;2022-12-20T12:16:16;18.80;;;12.23;;
6007;SDS011;3032;49.484;11.112;2022-12-20T12:18:52;18.67;;;11.55;;
6007;SDS011;3032;49.484;11.112;2022-12-20T12:26:37;16.38;;;11.07;;
6007;SDS011;3032;49.484;11.112;2022-12-20T12:29:14;19.58;;;11.10;;
6007;SDS011;3032;49.484;11.112;2022-12-20T12:44:35;16.73;;;11.20;;
6007;SDS011;3032;49.484;11.112;2022-12-20T12:47:47;17.13;;;11.77;;
6007;SDS011;3032;49.484;11.112;2022-12-20T12:50:20;16.27;;;10.73;;
6007;SDS011;3032;49.484;11.112;2022-12-20T12:53:20;21.83;;;12.10;;
6007;SDS011;3032;49.484;11.112;2022-12-20T12:55:52;19.92;;;11.10;;
6007;SDS011;3032;49.484;11.112;2022-12-20T13:14:10;15.40;;;10.75;;
6007;SDS011;3032;49.484;11.112;2022-12-20T13:21:54;14.60;;;10.17;;
6007;SDS011;3032;49.484;11.112;2022-12-20T13:29:50;17.20;;;11.10;;
6007;SDS011;3032;49.484;11.112;2022-12-20T13:37:51;16.20;;;10.70;;
6007;SDS011;3032;49.484;11.112;2022-12-20T13:40:22;17.85;;;10.80;;
6007;SDS011;3032;49.484;11.112;2022-12-20T13:42:56;16.00;;;10.32;;
6007;SDS011;3032;49.484;11.112;2022-12-20T13:45:26;14.82;;;10.75;;
6007;SDS011;3032;49.484;11.112;2022-12-20T13:47:56;16.08;;;10.75;;
6007;SDS011;3032;49.484;11.112;2022-12-20T13:50:28;14.27;;;10.50;;
6007;SDS011;3032;49.484;11.112;2022-12-20T13:52:59;16.95;;;11.05;;
6007;SDS011;3032;49.484;11.112;2022-12-20T13:58:03;14.23;;;10.30;;
6007;SDS011;3032;49.484;11.112;2022-12-20T14:00:30;18.60;;;10.40;;
6007;SDS011;3032;49.484;11.112;2022-12-20T14:02:56;17.93;;;11.37;;
6007;SDS011;3032;49.484;11.112;2022-12-20T14:05:26;22.70;;;12.93;;
6007;SDS011;3032;49.484;11.112;2022-12-20T14:07:58;20.08;;;12.60;;
6007;SDS011;3032;49.484;11.112;2022-12-20T14:10:32;18.27;;;13.38;;
6007;SDS011;3032;49.484;11.112;2022-12-20T14:12:59;17.95;;;11.70;;
6007;SDS011;3032;49.484;11.112;2022-12-20T14:15:32;17.15;;;11.73;;
6007;SDS011;3032;49.484;11.112;2022-12-20T14:18:05;27.30;;;11.90;;
6007;SDS011;3032;49.484;11.112;2022-12-20T14:20:45;20.08;;;11.73;;
6007;SDS011;3032;49.484;11.112;2022-12-20T14:23:29;19.65;;;11.98;;
6007;SDS011;3032;49.484;11.112;2022-12-20T14:26:03;18.75;;;11.50;;
6007;SDS011;3032;49.484;11.112;2022-12-20T14:28:37;19.23;;;12.50;;
6007;SDS011;3032;49.484;11.112;2022-12-20T14:31:33;15.10;;;11.57;;
6007;SDS011;3032;49.484;11.112;2022-12-20T14:36:36;19.67;;;12.05;;
6007;SDS011;3032;49.484;11.112;2022-12-20T14:39:20;19.55;;;11.73;;
6007;SDS011;3032;49.484;11.112;2022-12-20T14:41:55;16.92;;;11.77;;
6007;SDS011;3032;49.484;11.112;2022-12-20T14:44:25;18.98;;;11.40;;
6007;SDS011;3032;49.484;11.112;2022-12-20T14:46:56;17.77;;;11.80;;
6007;SDS011;3032;49.484;11.112;2022-12-20T14:49:28;19.98;;;12.52;;
6007;SDS011;3032;49.484;11.112;2022-12-20T14:57:21;21.38;;;13.35;;
6007;SDS011;3032;49.484;11.112;2022-12-20T15:02:50;19.40;;;11.38;;
6007;SDS011;3032;49.484;11.112;2022-12-20T15:08:15;18.00;;;12.02;;
6007;SDS011;3032;49.484;11.112;2022-12-20T15:10:51;18.10;;;11.70;;
6007;SDS011;3032;49.484;11.112;2022-12-20T15:13:34;20.05;;;12.75;;
6007;SDS011;3032;49.484;11.112;2022-12-20T15:16:14;17.80;;;12.68;;
6007;SDS011;3032;49.484;11.112;2022-12-20T15:18:40;17.80;;;11.95;;
6007;SDS011;3032;49.484;11.112;2022-12-20T15:21:09;20.00;;;12.00;;
6007;SDS011;3032;49.484;11.112;2022-12-20T15:23:36;18.45;;;11.45;;
6007;SDS011;3032;49.484;11.112;2022-12-20T15:26:11;21.30;;;12.48;;
6007;SDS011;3032;49.484;11.112;2022-12-20T15:28:39;19.10;;;12.32;;
6007;SDS011;3032;49.484;11.112;2022-12-20T15:31:04;23.70;;;12.43;;
6007;SDS011;3032;49.484;11.112;2022-12-20T15:33:31;19.67;;;12.90;;
6007;SDS011;3032;49.484;11.112;2022-12-20T15:35:58;20.55;;;12.18;;
6007;SDS011;3032;49.484;11.112;2022-12-20T15:38:24;18.60;;;10.47;;
6007;SDS011;3032;49.484;11.112;2022-12-20T15:40:51;18.23;;;12.23;;
6007;SDS011;3032;49.484;11.112;2022-12-20T15:43:20;24.15;;;13.70;;
6007;SDS011;3032;49.484;11.112;2022-12-20T15:45:49;23.05;;;13.55;;
6007;SDS011;3032;49.484;11.112;2022-12-20T15:48:17;20.15;;;12.98;;
6007;SDS011;3032;49.484;11.112;2022-12-20T15:50:49;27.55;;;14.35;;
6007;SDS011;3032;49.484;11.112;2022-12-20T15:53:25;18.55;;;12.45;;
6007;SDS011;3032;49.484;11.112;2022-12-20T15:55:57;19.00;;;12.35;;
6007;SDS011;3032;49.484;11.112;2022-12-20T15:58:23;18.67;;;13.03;;
6007;SDS011;3032;49.484;11.112;2022-12-20T16:00:50;21.98;;;13.43;;
6007;SDS011;3032;49.484;11.112;2022-12-20T16:03:23;20.08;;;12.95;;
6007;SDS011;3032;49.484;11.112;2022-12-20T16:05:51;17.35;;;12.05;;
6007;SDS011;3032;49.484;11.112;2022-12-20T16:08:16;20.77;;;12.83;;
6007;SDS011;3032;49.484;11.112;2022-12-20T16:10:45;18.83;;;12.23;;
6007;SDS011;3032;49.484;11.112;2022-12-20T16:13:13;19.90;;;12.55;;
6007;SDS011;3032;49.484;11.112;2022-12-20T16:15:45;20.77;;;12.35;;
6007;SDS011;3032;49.484;11.112;2022-12-20T16:18:11;18.08;;;12.25;;
6007;SDS011;3032;49.484;11.112;2022-12-20T16:20:36;20.67;;;13.00;;
6007;SDS011;3032;49.484;11.112;2022-12-20T16:23:03;21.65;;;13.13;;
6007;SDS011;3032;49.484;11.112;2022-12-20T16:25:30;22.98;;;14.02;;
6007;SDS011;3032;49.484;11.112;2022-12-20T16:27:57;23.65;;;13.80;;
6007;SDS011;3032;49.484;11.112;2022-12-20T16:30:23;20.63;;;12.80;;
6007;SDS011;3032;49.484;11.112;2022-12-20T16:32:49;22.48;;;14.23;;
6007;SDS011;3032;49.484;11.112;2022-12-20T16:35:22;20.87;;;12.97;;
6007;SDS011;3032;49.484;11.112;2022-12-20T16:37:51;21.67;;;14.02;;
6007;SDS011;3032;49.484;11.112;2022-12-20T16:40:19;22.05;;;13.75;;
6007;SDS011;3032;49.484;11.112;2022-12-20T16:42:46;22.90;;;14.05;;
6007;SDS011;3032;49.484;11.112;2022-12-20T16:45:16;23.40;;;14.33;;
6007;SDS011;3032;49.484;11.112;2022-12-20T16:47:44;21.27;;;14.10;;
6007;SDS011;3032;49.484;11.112;2022-12-20T16:50:10;22.90;;;14.10;;
6007;SDS011;3032;49.484;11.112;2022-12-20T16:52:36;25.77;;;14.10;;